Data for 02/24/2017

Time Sea-Level Adjusted Pressure Absolute Pressure Temperature Relative Humidity Dew Point   
(mb) (inHg) (mb) (inHg) (C) (F) (%) (C) (F)
00:05 1014 29.94 843 24.89 -6.5 20.2 77 -9.9 14.2
00:10 1014 29.94 843 24.89 -6.6 20.2 77 -10 14.1
00:15 1014 29.94 843 24.89 -6.5 20.2 76 -10.1 13.8
00:20 1014 29.94 843 24.89 -6.5 20.2 76 -10.2 13.7
00:25 1014 29.94 843 24.89 -6.5 20.3 74 -10.3 13.5
00:30 1014 29.94 843 24.89 -6.4 20.4 73 -10.5 13.1
00:35 1014 29.94 843 24.89 -6.4 20.5 72 -10.6 13
00:40 1014 29.94 843 24.89 -6.4 20.5 72 -10.6 12.9
00:45 1014 29.94 843 24.89 -6.4 20.5 73 -10.5 13.1
00:50 1014 29.94 843 24.89 -6.4 20.5 73 -10.5 13.2
00:55 1014 29.94 843 24.89 -6.4 20.5 71 -10.8 12.6
01:00 1014 29.94 843 24.89 -6.4 20.6 72 -10.6 12.9
01:05 1014 29.94 843 24.89 -6.4 20.5 72 -10.7 12.8
01:10 1014 29.94 843 24.89 -6.4 20.4 73 -10.6 13
01:15 1014 29.94 843 24.89 -6.4 20.4 72 -10.7 12.8
01:20 1014 29.94 843 24.89 -6.4 20.4 72 -10.6 12.9
01:25 1014 29.94 843 24.89 -6.5 20.4 72 -10.7 12.7
01:30 1014 29.94 843 24.89 -6.5 20.3 72 -10.7 12.8
01:35 1014 29.94 843 24.89 -6.5 20.3 72 -10.7 12.7
01:40 1014 29.94 843 24.89 -6.5 20.2 73 -10.7 12.8
01:45 1014 29.94 843 24.89 -6.6 20.2 72 -10.8 12.5
01:50 1014 29.94 843 24.89 -6.6 20.2 72 -10.8 12.6
01:55 1014 29.94 843 24.89 -6.6 20.2 72 -10.8 12.6
02:00 1014 29.94 843 24.89 -6.6 20.1 73 -10.7 12.8
02:05 1014 29.94 843 24.89 -6.6 20 73 -10.7 12.7
02:10 1014 29.94 843 24.89 -6.7 20 73 -10.7 12.7
02:15 1014 29.94 843 24.89 -6.7 20 73 -10.7 12.8
02:20 1014 29.94 843 24.89 -6.7 19.9 73 -10.8 12.6
02:25 1014 29.94 843 24.89 -6.7 20 72 -10.9 12.3
02:30 1014 29.94 843 24.89 -6.7 19.9 72 -11 12.2
02:35 1014 29.94 843 24.89 -6.7 19.9 71 -11.1 12.1
02:40 1014 29.94 843 24.89 -6.7 19.9 71 -11.1 12
02:45 1014 29.94 843 24.89 -6.8 19.7 71 -11.2 11.9
02:50 1014 29.94 843 24.89 -6.9 19.6 71 -11.3 11.7
02:55 1014 29.94 843 24.89 -6.9 19.5 71 -11.4 11.5
03:00 1014 29.94 843 24.89 -7 19.4 71 -11.4 11.5
03:05 1014 29.94 843 24.89 -7.1 19.3 71 -11.5 11.3
03:10 1014 29.94 843 24.89 -7.1 19.3 71 -11.5 11.4
03:15 1014 29.94 843 24.89 -7.1 19.2 71 -11.5 11.4
03:20 1014 29.94 843 24.89 -7.1 19.1 72 -11.4 11.5
03:25 1014 29.94 843 24.89 -7.2 19.1 72 -11.4 11.5
03:30 1014 29.94 843 24.89 -7.2 19.1 72 -11.4 11.5
03:35 1014 29.94 843 24.89 -7.2 19 72 -11.4 11.5
03:40 1014 29.94 843 24.89 -7.3 18.9 72 -11.4 11.4
03:45 1014 29.94 843 24.89 -7.3 18.9 72 -11.4 11.5
03:50 1014 29.94 843 24.89 -7.2 19 76 -10.7 12.7
03:55 1014 29.94 843 24.89 -7 19.4 77 -10.4 13.3
04:00 1014 29.94 843 24.89 -6.9 19.6 76 -10.5 13.1
04:05 1014 29.94 843 24.89 -6.9 19.5 77 -10.4 13.3
04:10 1014 29.94 843 24.89 -6.9 19.6 76 -10.4 13.3
04:15 1014 29.94 843 24.89 -6.9 19.5 78 -10.1 13.8
04:20 1014 29.94 843 24.89 -6.9 19.5 80 -9.8 14.3
04:25 1014 29.94 843 24.89 -6.9 19.6 80 -9.8 14.3
04:30 1014 29.94 843 24.89 -6.9 19.5 83 -9.4 15.2
04:35 1014 29.94 843 24.89 -7 19.5 84 -9.2 15.4
04:40 1014 29.94 843 24.89 -6.9 19.5 84 -9.1 15.6
04:45 1014 29.94 843 24.89 -6.9 19.6 85 -9 15.7
04:50 1014 29.94 843 24.89 -6.9 19.6 85 -8.9 15.9
04:55 1014 29.94 843 24.89 -6.9 19.6 86 -8.8 16.1
05:00 1014 29.94 843 24.89 -6.8 19.8 86 -8.8 16.1
05:05 1014 29.94 844 24.92 -6.8 19.7 86 -8.8 16.2
05:10 1014 29.94 844 24.92 -6.9 19.7 86 -8.8 16.2
05:15 1014 29.94 844 24.92 -6.8 19.7 87 -8.6 16.5
05:20 1014 29.94 844 24.92 -6.7 19.9 86 -8.6 16.5
05:25 1014 29.94 844 24.92 -6.7 20 87 -8.6 16.6
05:30 1015 29.97 844 24.92 -6.7 19.9 87 -8.6 16.6
05:35 1015 29.97 844 24.92 -6.8 19.7 87 -8.6 16.5
05:40 1015 29.97 844 24.92 -6.9 19.6 88 -8.6 16.4
05:45 1015 29.97 844 24.92 -7 19.5 88 -8.6 16.5
05:50 1015 29.97 844 24.92 -7 19.4 89 -8.6 16.6
05:55 1015 29.97 844 24.92 -7 19.4 89 -8.6 16.6
06:00 1015 29.97 844 24.92 -7 19.3 89 -8.5 16.6
06:05 1015 29.97 844 24.92 -7 19.4 89 -8.5 16.7
06:10 1015 29.97 844 24.92 -7 19.4 89 -8.5 16.6
06:15 1015 29.97 844 24.92 -6.9 19.5 89 -8.5 16.7
06:20 1015 29.97 844 24.92 -6.9 19.5 88 -8.6 16.5
06:25 1015 29.97 844 24.92 -7 19.3 88 -8.7 16.3
06:30 1015 29.97 844 24.92 -7 19.3 88 -8.8 16.2
06:35 1015 29.97 844 24.92 -7 19.4 87 -8.8 16.1
06:40 1015 29.97 844 24.92 -7.1 19.2 87 -8.9 16
06:45 1015 29.97 844 24.92 -7.2 19 87 -9 15.8
06:50 1015 29.97 844 24.92 -7.4 18.7 87 -9.2 15.4
06:55 1015 29.97 844 24.92 -7.4 18.7 87 -9.2 15.4
07:00 1015 29.97 844 24.92 -7.4 18.7 87 -9.2 15.5
07:05 1015 29.97 844 24.92 -7.4 18.7 88 -9.1 15.6
07:10 1015 29.97 844 24.92 -7.3 18.8 88 -9 15.8
07:15 1015 29.97 844 24.92 -7.3 18.9 87 -9 15.8
07:20 1015 29.97 844 24.92 -7.3 18.8 88 -9 15.8
07:25 1015 29.97 844 24.92 -7.3 18.8 87 -9.2 15.5
07:30 1015 29.97 844 24.92 -7.4 18.7 87 -9.1 15.5
07:35 1015 29.97 844 24.92 -7.3 18.8 88 -9 15.7
07:40 1015 29.97 844 24.92 -7.3 18.9 87 -9.1 15.7
07:45 1015 29.97 844 24.92 -7.3 18.8 87 -9.2 15.4
07:50 1015 29.97 844 24.92 -7.3 18.9 86 -9.2 15.5
07:55 1015 29.97 844 24.92 -7.2 19 87 -9.1 15.7
08:00 1015 29.97 845 24.95 -7.1 19.2 86 -9 15.8
08:05 1015 29.97 845 24.95 -7.2 19 87 -9.1 15.7
08:10 1015 29.97 845 24.95 -7.2 19.1 87 -9 15.8
08:15 1016 30 845 24.95 -7.1 19.3 86 -9 15.8
08:20 1016 30 845 24.95 -7 19.3 86 -8.9 15.9
08:25 1016 30 845 24.95 -7 19.4 85 -9 15.8
08:30 1016 30 845 24.95 -6.9 19.5 85 -9.1 15.6
08:35 1016 30 845 24.95 -6.9 19.5 84 -9.3 15.3
08:40 1016 30 845 24.95 -7 19.5 84 -9.2 15.4
08:45 1016 30 845 24.95 -6.9 19.6 84 -9.1 15.6
08:50 1016 30 845 24.95 -6.6 20 84 -8.9 15.9
08:55 1016 30 845 24.95 -6.5 20.4 83 -9 15.9
09:00 1016 30 845 24.95 -6.3 20.7 82 -8.9 15.9
09:05 1016 30 845 24.95 -6.1 20.9 82 -8.7 16.4
09:10 1016 30 845 24.95 -6.1 21.1 80 -9 15.9
09:15 1016 30 845 24.95 -6.3 20.7 81 -9.1 15.7
09:20 1016 30 845 24.95 -6 21.3 79 -9.1 15.6
09:25 1016 30 845 24.95 -5.6 22 78 -8.9 16
09:30 1016 30 845 24.95 -5.5 22.1 77 -9 15.8
09:35 1016 30 845 24.95 -5.4 22.3 75 -9.1 15.6
09:40 1016 30 845 24.95 -5.2 22.7 75 -8.9 15.9
09:45 1016 30 845 24.95 -4.7 23.5 72 -9 15.8
09:50 1016 30 845 24.95 -4.2 24.5 69 -9.1 15.6
09:55 1016 30 845 24.95 -3.9 25 67 -9.1 15.6
10:00 1016 30 845 24.95 -3.6 25.4 65 -9.3 15.3
10:05 1016 30 845 24.95 -3.5 25.6 65 -9.2 15.4
10:10 1016 30 845 24.95 -3.5 25.7 66 -9.1 15.6
10:15 1016 30 845 24.95 -3.6 25.4 66 -9.2 15.5
10:20 1016 30 845 24.95 -3.6 25.6 66 -9 15.8
10:25 1016 30 845 24.95 -3.4 25.9 64 -9.3 15.3
10:30 1016 30 845 24.95 -3.4 26 65 -9 15.8
10:35 1016 30 845 24.95 -3.1 26.4 65 -8.8 16.1
10:40 1016 30 845 24.95 -3.1 26.4 65 -8.8 16.2
10:45 1016 30 845 24.95 -3.1 26.5 64 -8.9 16
10:50 1016 30 845 24.95 -3.1 26.4 64 -8.9 16
10:55 1016 30 845 24.95 -3.2 26.3 63 -9.2 15.5
11:00 1016 30 845 24.95 -3.8 25.1 66 -9.3 15.3
11:05 1016 30 845 24.95 -3.6 25.5 66 -9.1 15.7
11:10 1016 30 845 24.95 -3.3 26.1 64 -9.2 15.5
11:15 1016 30 845 24.95 -3.3 26 66 -8.8 16.2
11:20 1016 30 845 24.95 -3.3 26.1 66 -8.8 16.1
11:25 1016 30 845 24.95 -3 26.7 64 -8.8 16.2
11:30 1016 30 845 24.95 -2.9 26.7 66 -8.5 16.8
11:35 1016 30 845 24.95 -2.6 27.3 65 -8.3 17.1
11:40 1016 30 845 24.95 -2.5 27.5 64 -8.4 16.8
11:45 1016 30 845 24.95 -2.4 27.7 63 -8.5 16.6
11:50 1016 30 845 24.95 -2.2 28.1 65 -7.9 17.7
11:55 1016 30 845 24.95 -2.5 27.5 63 -8.6 16.6
12:00 1016 30 845 24.95 -2.7 27.2 64 -8.5 16.6
12:05 1016 30 845 24.95 -2.7 27.2 64 -8.6 16.5
12:10 1016 30 845 24.95 -2.2 28.1 59 -9.2 15.5
12:15 1016 30 845 24.95 -1.6 29.2 65 -7.4 18.7
12:20 1016 30 845 24.95 -1.2 29.9 60 -7.9 17.8
12:25 1016 30 845 24.95 -1.5 29.3 59 -8.5 16.7
12:30 1016 30 845 24.95 -1.6 29.1 64 -7.5 18.5
12:35 1016 30 845 24.95 -2 28.5 66 -7.4 18.6
12:40 1016 30 845 24.95 -2.4 27.7 68 -7.5 18.6
12:45 1016 30 845 24.95 -2.3 27.8 69 -7.3 18.8
12:50 1016 30 845 24.95 -2.6 27.4 69 -7.6 18.4
12:55 1016 30 845 24.95 -3.1 26.5 70 -7.8 18
13:00 1016 30 845 24.95 -3.1 26.4 69 -8 17.7
13:05 1016 30 845 24.95 -2.8 26.9 71 -7.4 18.6
13:10 1016 30 845 24.95 -2.8 26.9 69 -7.7 18.1
13:15 1016 30 845 24.95 -2.9 26.7 70 -7.6 18.3
13:20 1016 30 845 24.95 -2.6 27.3 68 -7.8 18
13:25 1016 30 845 24.95 -2.6 27.3 68 -7.7 18.1
13:30 1016 30 845 24.95 -2.6 27.4 65 -8.2 17.2
13:35 1016 30 845 24.95 -2.4 27.7 67 -7.8 17.9
13:40 1016 30 845 24.95 -2.3 27.8 61 -8.8 16.1
13:45 1016 30 845 24.95 -2.7 27.2 65 -8.5 16.8
13:50 1016 30 845 24.95 -2.6 27.4 64 -8.5 16.8
13:55 1016 30 845 24.95 -2.2 28 63 -8.4 16.9
14:00 1016 30 845 24.95 -2.1 28.1 62 -8.4 16.8
14:05 1016 30 845 24.95 -2.1 28.2 59 -9.1 15.7
14:10 1016 30 845 24.95 -2.1 28.2 62 -8.4 16.9
14:15 1016 30 845 24.95 -2 28.3 61 -8.7 16.4
14:20 1016 30 845 24.95 -1.7 29 62 -8.1 17.4
14:25 1016 30 845 24.95 -2.3 27.9 66 -7.9 17.8
14:30 1016 30 845 24.95 -2.6 27.4 64 -8.4 16.9
14:35 1016 30 845 24.95 -2.2 28 63 -8.3 17.1
14:40 1016 30 845 24.95 -2.2 28.1 61 -8.7 16.3
14:45 1016 30 845 24.95 -2 28.4 63 -8.2 17.3
14:50 1016 30 845 24.95 -2.1 28.3 61 -8.6 16.5
14:55 1016 30 845 24.95 -1.6 29.1 57 -9 15.8
15:00 1016 30 845 24.95 -1.1 30 56 -8.9 15.9
15:05 1016 30 845 24.95 -1.1 30 54 -9.4 15.2
15:10 1016 30 845 24.95 -1.3 29.6 55 -9.1 15.5
15:15 1016 30 845 24.95 -1.5 29.3 54 -9.7 14.5
15:20 1016 30 845 24.95 -1.1 29.9 52 -9.7 14.5
15:25 1016 30 845 24.95 -1 30.3 51 -9.8 14.4
15:30 1016 30 845 24.95 -1 30.2 53 -9.5 14.9
15:35 1016 30 845 24.95 -0.8 30.5 51 -9.7 14.5
15:40 1016 30 845 24.95 -0.9 30.4 51 -9.8 14.4
15:45 1016 30 845 24.95 -0.7 30.8 51 -9.6 14.7
15:50 1016 30 845 24.95 -0.8 30.5 54 -9 15.8
15:55 1016 30 845 24.95 -0.7 30.7 47 -10.7 12.7
16:00 1016 30 845 24.95 -0.7 30.7 47 -10.6 12.9
16:05 1016 30 845 24.95 -0.7 30.7 46 -10.8 12.5
16:10 1016 30 845 24.95 -0.8 30.5 47 -10.9 12.5
16:15 1016 30 845 24.95 -1.2 29.8 46 -11.3 11.6
16:20 1016 30 845 24.95 -1.3 29.6 48 -10.9 12.4
16:25 1016 30 845 24.95 -1.5 29.3 50 -10.6 12.9
16:30 1016 30 845 24.95 -1.4 29.5 48 -10.9 12.3
16:35 1016 30 845 24.95 -1.6 29.1 50 -10.7 12.7
16:40 1016 30 845 24.95 -1.9 28.6 51 -10.6 12.9
16:45 1016 30 845 24.95 -1.6 29.1 53 -10.1 13.9
16:50 1016 30 845 24.95 -1.8 28.8 53 -10.1 13.8
16:55 1016 30 845 24.95 -2.1 28.2 53 -10.5 13.1
17:00 1016 30 845 24.95 -2.2 28.1 52 -10.7 12.7
17:05 1016 30 845 24.95 -2.5 27.5 55 -10.5 13.2
17:10 1016 30 846 24.98 -2.5 27.4 53 -10.8 12.5
17:15 1016 30 846 24.98 -2.7 27.2 55 -10.5 13
17:20 1016 30 846 24.98 -3.2 26.2 56 -10.9 12.4
17:25 1016 30 846 24.98 -3.2 26.3 52 -11.6 11.2
17:30 1016 30 846 24.98 -3.1 26.4 53 -11.3 11.6
17:35 1016 30 846 24.98 -3.2 26.3 54 -11.3 11.7
17:40 1017 30.03 846 24.98 -3.1 26.4 53 -11.4 11.4
17:45 1017 30.03 846 24.98 -3.3 26.1 53 -11.5 11.3
17:50 1017 30.03 846 24.98 -3.4 25.9 55 -11.3 11.7
17:55 1017 30.03 846 24.98 -3.3 26.1 53 -11.5 11.4
18:00 1017 30.03 846 24.98 -3.2 26.3 54 -11.3 11.6
18:05 1017 30.03 846 24.98 -3.3 26 55 -11.1 12
18:10 1017 30.03 846 24.98 -3.6 25.6 56 -11.2 11.8
18:15 1017 30.03 846 24.98 -3.7 25.4 56 -11.2 11.9
18:20 1017 30.03 846 24.98 -3.7 25.3 57 -11 12.3
18:25 1017 30.03 846 24.98 -3.6 25.5 56 -11.1 12.1
18:30 1017 30.03 846 24.98 -3.8 25.2 58 -10.8 12.5
18:35 1017 30.03 846 24.98 -3.9 25.1 59 -10.8 12.6
18:40 1017 30.03 846 24.98 -3.9 24.9 60 -10.7 12.8
18:45 1017 30.03 846 24.98 -3.9 25 61 -10.4 13.3
18:50 1017 30.03 846 24.98 -3.9 25 62 -10.2 13.7
18:55 1017 30.03 846 24.98 -3.6 25.4 62 -9.8 14.3
19:00 1017 30.03 846 24.98 -4 24.9 66 -9.4 15.1
19:05 1017 30.03 846 24.98 -3.9 24.9 68 -9 15.7
19:10 1017 30.03 846 24.98 -3.9 24.9 69 -8.7 16.3
19:15 1017 30.03 846 24.98 -4 24.8 70 -8.7 16.3
19:20 1017 30.03 846 24.98 -4.1 24.6 71 -8.5 16.6
19:25 1017 30.03 846 24.98 -4.2 24.5 71 -8.7 16.3
19:30 1017 30.03 846 24.98 -4.3 24.3 72 -8.6 16.5
19:35 1017 30.03 846 24.98 -4.5 23.9 74 -8.5 16.7
19:40 1017 30.03 846 24.98 -4.4 24.2 75 -8.2 17.3
19:45 1017 30.03 846 24.98 -4.3 24.3 75 -8.1 17.4
19:50 1017 30.03 846 24.98 -4.3 24.3 75 -8 17.5
19:55 1017 30.03 846 24.98 -4.2 24.4 75 -8 17.6
20:00 1017 30.03 846 24.98 -4.2 24.5 76 -7.9 17.9
20:05 1017 30.03 846 24.98 -4.2 24.4 77 -7.7 18.2
20:10 1017 30.03 846 24.98 -4.1 24.5 76 -7.8 18
20:15 1017 30.03 846 24.98 -4.1 24.5 77 -7.6 18.3
20:20 1017 30.03 846 24.98 -4.2 24.4 79 -7.3 18.8
20:25 1017 30.03 846 24.98 -4.2 24.5 81 -7 19.4
20:30 1017 30.03 846 24.98 -4.3 24.4 83 -6.8 19.8
20:35 1017 30.03 846 24.98 -4.4 24.1 84 -6.6 20.1
20:40 1017 30.03 846 24.98 -4.7 23.6 86 -6.7 20
20:45 1017 30.03 846 24.98 -4.8 23.3 87 -6.7 20
20:50 1017 30.03 846 24.98 -4.9 23.3 88 -6.6 20.1
20:55 1017 30.03 846 24.98 -4.8 23.3 88 -6.6 20.2
21:00 1017 30.03 847 25.01 -4.8 23.4 88 -6.4 20.5
21:05 1017 30.03 847 25.01 -4.7 23.6 88 -6.3 20.6
21:10 1017 30.03 847 25.01 -4.8 23.4 88 -6.5 20.2
21:15 1017 30.03 847 25.01 -5 23.1 88 -6.6 20
21:20 1017 30.03 847 25.01 -5 23 88 -6.7 20
21:25 1017 30.03 847 25.01 -5 23 88 -6.7 20
21:30 1017 30.03 846 24.98 -5.1 22.9 88 -6.8 19.8
21:35 1017 30.03 846 24.98 -5.2 22.7 88 -6.9 19.6
21:40 1017 30.03 846 24.98 -5.2 22.6 88 -6.9 19.6
21:45 1017 30.03 846 24.98 -5.4 22.3 89 -7 19.4
21:50 1017 30.03 846 24.98 -5.5 22 89 -7 19.4
21:55 1017 30.03 846 24.98 -5.7 21.8 90 -7.1 19.3
22:00 1017 30.03 846 24.98 -5.7 21.8 90 -7 19.4
22:05 1017 30.03 846 24.98 -5.7 21.8 91 -7 19.5
22:10 1017 30.03 846 24.98 -5.7 21.8 90 -7 19.3
22:15 1017 30.03 846 24.98 -5.7 21.8 90 -7 19.4
22:20 1017 30.03 846 24.98 -5.7 21.8 89 -7.2 19
22:25 1017 30.03 846 24.98 -5.7 21.7 90 -7.2 19.1
22:30 1017 30.03 846 24.98 -5.6 22 89 -7.1 19.1
22:35 1017 30.03 846 24.98 -5.7 21.7 88 -7.4 18.7
22:40 1017 30.03 846 24.98 -5.9 21.4 88 -7.6 18.3
22:45 1017 30.03 846 24.98 -5.9 21.4 87 -7.8 18
22:50 1017 30.03 846 24.98 -5.9 21.3 86 -7.9 17.9
22:55 1017 30.03 846 24.98 -6 21.2 85 -8.1 17.5
23:00 1017 30.03 846 24.98 -6.1 21 86 -8 17.5
23:05 1017 30.03 846 24.98 -6.1 21 86 -8.1 17.5
23:10 1017 30.03 846 24.98 -6.1 20.9 87 -8 17.5
23:15 1017 30.03 846 24.98 -6.2 20.9 87 -8 17.6
23:20 1017 30.03 846 24.98 -6.1 21 87 -7.9 17.7
23:25 1017 30.03 846 24.98 -6.2 20.9 87 -8 17.7
23:30 1017 30.03 846 24.98 -6.3 20.7 88 -8 17.7
23:35 1017 30.03 846 24.98 -6.3 20.6 88 -8 17.7
23:40 1017 30.03 846 24.98 -6.3 20.6 89 -7.9 17.8
23:45 1017 30.03 846 24.98 -6.2 20.8 89 -7.8 17.9
23:50 1017 30.03 846 24.98 -6.2 20.8 88 -7.9 17.8
23:55 1017 30.03 846 24.98 -6.2 20.8 88 -7.9 17.9
24:00 1017 30.03 846 24.98 -6.3 20.7 88 -7.9 17.8